createdAt,value
2022-12-16T00:02:07.849Z,94918.47
2022-12-16T00:04:36.357Z,94923.00
2022-12-16T00:07:05.033Z,94933.44
2022-12-16T00:09:33.532Z,94921.34
2022-12-16T00:12:02.328Z,94926.31
2022-12-16T00:14:33.365Z,94921.19
2022-12-16T00:17:02.301Z,94927.75
2022-12-16T00:19:31.574Z,94928.56
2022-12-16T00:22:00.129Z,94922.44
2022-12-16T00:24:31.646Z,94917.09
2022-12-16T00:27:00.130Z,94915.97
2022-12-16T00:29:28.954Z,94918.00
2022-12-16T00:31:58.930Z,94933.38
2022-12-16T00:34:28.175Z,94927.63
2022-12-16T00:36:57.133Z,94934.59
2022-12-16T00:39:26.047Z,94932.56
2022-12-16T00:41:54.425Z,94921.34
2022-12-16T00:44:23.880Z,94935.22
2022-12-16T00:46:52.208Z,94928.47
2022-12-16T00:49:22.312Z,94931.56
2022-12-16T00:51:51.113Z,94933.22
2022-12-16T00:54:19.928Z,94941.06
2022-12-16T00:56:49.089Z,94943.94
2022-12-16T00:59:17.907Z,94948.25
2022-12-16T01:01:47.023Z,94936.75
2022-12-16T01:04:15.538Z,94940.50
2022-12-16T01:06:47.746Z,94950.94
2022-12-16T01:09:16.226Z,94956.50
2022-12-16T01:11:44.834Z,94951.97
2022-12-16T01:14:13.234Z,94958.34
2022-12-16T01:16:42.297Z,94952.41
2022-12-16T01:19:11.443Z,94958.53
2022-12-16T01:21:39.854Z,94958.53
2022-12-16T01:24:11.711Z,94955.72
2022-12-16T01:26:40.678Z,94967.22
2022-12-16T01:29:09.812Z,94963.53
2022-12-16T01:31:38.300Z,94970.50
2022-12-16T01:34:07.696Z,94972.94
2022-12-16T01:36:36.713Z,94977.69
2022-12-16T01:39:05.981Z,94980.78
2022-12-16T01:41:36.318Z,94978.72
2022-12-16T01:44:15.533Z,94975.47
2022-12-16T01:46:51.032Z,94972.94
2022-12-16T01:49:25.542Z,94976.66
2022-12-16T01:51:56.237Z,94976.47
2022-12-16T01:54:29.493Z,94983.66
2022-12-16T01:57:03.714Z,94983.06
2022-12-16T01:59:35.324Z,94986.72
2022-12-16T02:02:05.109Z,94978.72
2022-12-16T02:04:33.980Z,94978.72
2022-12-16T02:07:03.166Z,94984.06
2022-12-16T02:09:32.195Z,94978.50
2022-12-16T02:12:18.908Z,94984.47
2022-12-16T02:15:10.789Z,94986.75
2022-12-16T02:17:48.285Z,94986.38
2022-12-16T02:20:59.068Z,94989.41
2022-12-16T02:23:55.430Z,94996.19
2022-12-16T02:27:07.543Z,94991.09
2022-12-16T02:30:05.787Z,94995.00
2022-12-16T02:32:46.765Z,94991.53
2022-12-16T02:35:26.648Z,94990.72
2022-12-16T02:38:09.415Z,95004.25
2022-12-16T02:40:45.369Z,94995.03
2022-12-16T02:43:20.149Z,94997.88
2022-12-16T02:45:50.353Z,95004.66
2022-12-16T02:48:20.178Z,95010.00
2022-12-16T02:50:51.823Z,95012.06
2022-12-16T02:53:21.884Z,95014.50
2022-12-16T02:56:02.659Z,95012.25
2022-12-16T02:58:38.791Z,95005.06
2022-12-16T03:01:14.773Z,95015.50
2022-12-16T03:03:51.867Z,94998.31
2022-12-16T03:06:22.584Z,95017.97
2022-12-16T03:08:56.079Z,95024.13
2022-12-16T03:11:27.534Z,95030.09
2022-12-16T03:13:57.868Z,95020.91
2022-12-16T03:16:31.132Z,95029.94
2022-12-16T03:19:04.401Z,95025.44
2022-12-16T03:21:37.645Z,95040.78
2022-12-16T03:24:11.260Z,95017.44
2022-12-16T03:26:45.443Z,95030.13
2022-12-16T03:29:17.841Z,95012.50
2022-12-16T03:31:50.751Z,95020.69
2022-12-16T03:34:29.691Z,95034.47
2022-12-16T03:37:04.181Z,95035.50
2022-12-16T03:39:36.139Z,95051.69
2022-12-16T03:42:07.210Z,95043.69
2022-12-16T03:44:37.431Z,95044.91
2022-12-16T03:47:06.911Z,95049.03
2022-12-16T03:49:37.097Z,95046.97
2022-12-16T03:52:05.882Z,95054.75
2022-12-16T03:54:35.271Z,95058.44
2022-12-16T03:57:04.287Z,95063.34
2022-12-16T03:59:32.648Z,95055.38
2022-12-16T04:02:01.980Z,95053.56
2022-12-16T04:04:30.460Z,95057.22
2022-12-16T04:07:18.229Z,95054.56
2022-12-16T04:09:47.650Z,95054.78
2022-12-16T04:12:33.769Z,95040.88
2022-12-16T04:15:34.541Z,95066.66
2022-12-16T04:18:20.626Z,95074.88
2022-12-16T04:21:10.849Z,95076.50
2022-12-16T04:24:06.442Z,95075.03
2022-12-16T04:26:55.803Z,95080.19
2022-12-16T04:29:24.719Z,95077.09
2022-12-16T04:31:53.561Z,95074.06
2022-12-16T04:34:29.403Z,95050.94
2022-12-16T04:37:17.442Z,95071.59
2022-12-16T04:40:05.458Z,95083.03
2022-12-16T04:42:51.850Z,95084.47
2022-12-16T04:45:38.597Z,95082.00
2022-12-16T04:48:25.369Z,95091.44
2022-12-16T04:51:11.291Z,95090.00
2022-12-16T04:53:57.549Z,95088.56
2022-12-16T04:56:44.676Z,95087.38
2022-12-16T04:59:30.534Z,95092.50
2022-12-16T05:02:16.985Z,95090.22
2022-12-16T05:05:02.963Z,95092.28
2022-12-16T05:07:49.369Z,95103.13
2022-12-16T05:10:44.123Z,95105.16
2022-12-16T05:13:32.196Z,95101.91
2022-12-16T05:16:18.275Z,95107.22
2022-12-16T05:19:03.997Z,95106.84
2022-12-16T05:21:50.132Z,95116.69
2022-12-16T05:24:36.031Z,95114.84
2022-12-16T05:27:21.938Z,95116.69
2022-12-16T05:30:09.245Z,95122.59
2022-12-16T05:32:54.944Z,95135.31
2022-12-16T05:35:42.181Z,95129.56
2022-12-16T05:38:28.330Z,95132.03
2022-12-16T05:41:25.903Z,95141.84
2022-12-16T05:44:12.732Z,95153.53
2022-12-16T05:47:00.125Z,95163.16
2022-12-16T05:49:47.012Z,95154.78
2022-12-16T05:52:32.020Z,95157.22
2022-12-16T05:55:18.806Z,95161.94
2022-12-16T05:58:07.703Z,95177.09
2022-12-16T06:00:55.512Z,95178.94
2022-12-16T06:03:42.895Z,95173.81
2022-12-16T06:06:30.050Z,95167.47
2022-12-16T06:09:16.176Z,95173.41
2022-12-16T06:12:02.936Z,95175.25
2022-12-16T06:14:48.672Z,95172.59
2022-12-16T06:17:35.653Z,95168.69
2022-12-16T06:20:24.402Z,95172.19
2022-12-16T06:23:11.546Z,95178.94
2022-12-16T06:25:58.266Z,95191.25
2022-12-16T06:28:46.034Z,95199.81
2022-12-16T06:31:32.842Z,95199.44
2022-12-16T06:34:18.701Z,95192.03
2022-12-16T06:37:07.697Z,95205.97
2022-12-16T06:39:53.888Z,95211.50
2022-12-16T06:42:39.723Z,95223.19
2022-12-16T06:45:32.907Z,95217.44
2022-12-16T06:48:21.091Z,95218.44
2022-12-16T06:51:08.046Z,95216.22
2022-12-16T06:53:55.107Z,95229.75
2022-12-16T06:56:41.214Z,95232.56
2022-12-16T06:59:27.433Z,95258.59
2022-12-16T07:02:14.049Z,95258.59
2022-12-16T07:04:59.990Z,95268.00
2022-12-16T07:07:46.405Z,95277.84
2022-12-16T07:10:33.646Z,95277.84
2022-12-16T07:13:28.314Z,95281.94
2022-12-16T07:16:14.445Z,95292.97
2022-12-16T07:19:01.389Z,95294.00
2022-12-16T07:21:47.637Z,95299.34
2022-12-16T07:24:34.145Z,95303.03
2022-12-16T07:27:21.343Z,95298.94
2022-12-16T07:30:08.022Z,95304.06
2022-12-16T07:32:54.473Z,95308.75
2022-12-16T07:35:40.852Z,95293.22
2022-12-16T07:38:27.132Z,95316.16
2022-12-16T07:41:12.923Z,95328.06
2022-12-16T07:44:09.019Z,95330.09
2022-12-16T07:46:55.599Z,95336.41
2022-12-16T07:49:41.707Z,95343.59
2022-12-16T07:52:28.662Z,95348.06
2022-12-16T07:55:14.521Z,95349.91
2022-12-16T07:58:00.833Z,95356.50
2022-12-16T08:00:47.947Z,95351.78
2022-12-16T08:03:35.514Z,95353.81
2022-12-16T08:06:22.383Z,95361.00
2022-12-16T08:09:08.950Z,95364.09
2022-12-16T08:11:54.719Z,95363.06
2022-12-16T08:14:42.040Z,95374.72
2022-12-16T08:17:29.187Z,95376.75
2022-12-16T08:20:15.618Z,95391.09
2022-12-16T08:23:01.965Z,95397.44
2022-12-16T08:25:48.173Z,95398.50
2022-12-16T08:28:34.158Z,95402.22
2022-12-16T08:31:20.013Z,95398.31
2022-12-16T08:34:07.304Z,95415.38
2022-12-16T08:36:54.982Z,95414.75
2022-12-16T08:39:41.205Z,95411.66
2022-12-16T08:42:27.917Z,95409.84
2022-12-16T08:45:13.660Z,95413.75
2022-12-16T08:48:00.743Z,95409.59
2022-12-16T08:50:48.117Z,95413.09
2022-12-16T08:53:34.510Z,95421.47
2022-12-16T08:56:20.996Z,95420.03
2022-12-16T08:59:08.004Z,95426.22
2022-12-16T09:01:54.281Z,95426.19
2022-12-16T09:04:42.694Z,95439.31
2022-12-16T09:07:30.591Z,95450.00
2022-12-16T09:10:16.508Z,95450.19
2022-12-16T09:13:03.578Z,95446.69
2022-12-16T09:15:49.520Z,95453.66
2022-12-16T09:18:36.751Z,95445.91
2022-12-16T09:21:22.681Z,95446.09
2022-12-16T09:24:09.882Z,95454.91
2022-12-16T09:26:55.767Z,95463.72
2022-12-16T09:29:45.075Z,95467.63
2022-12-16T09:32:31.764Z,95471.34
2022-12-16T09:35:19.141Z,95475.44
2022-12-16T09:38:06.551Z,95472.41
2022-12-16T09:40:57.033Z,95476.69
2022-12-16T09:43:58.759Z,95484.06
2022-12-16T09:46:56.553Z,95486.34
2022-12-16T09:49:52.979Z,95501.91
2022-12-16T09:52:41.292Z,95500.28
2022-12-16T09:55:44.036Z,95506.03
2022-12-16T09:58:32.693Z,95501.28
2022-12-16T10:01:19.300Z,95498.63
2022-12-16T10:04:06.293Z,95513.38
2022-12-16T10:07:11.677Z,95516.38
2022-12-16T10:10:10.784Z,95519.84
2022-12-16T10:13:05.982Z,95521.13
2022-12-16T10:16:02.657Z,95515.41
2022-12-16T10:19:02.607Z,95526.72
2022-12-16T10:21:54.186Z,95532.84
2022-12-16T10:24:50.990Z,95534.03
2022-12-16T10:27:48.959Z,95533.84
2022-12-16T10:30:35.241Z,95546.50
2022-12-16T10:33:38.361Z,95539.75
2022-12-16T10:36:32.612Z,95542.84
2022-12-16T10:39:21.738Z,95532.84
2022-12-16T10:42:11.515Z,95532.22
2022-12-16T10:45:20.367Z,95535.91
2022-12-16T10:48:06.490Z,95541.66
2022-12-16T10:50:53.954Z,95549.84
2022-12-16T10:53:44.251Z,95549.88
2022-12-16T10:56:54.063Z,95551.53
2022-12-16T10:59:39.849Z,95556.44
2022-12-16T11:02:37.705Z,95552.53
2022-12-16T11:05:47.248Z,95555.41
2022-12-16T11:08:46.363Z,95552.53
2022-12-16T11:11:38.194Z,95551.94
2022-12-16T11:14:37.576Z,95552.16
2022-12-16T11:17:32.678Z,95555.19
2022-12-16T11:20:33.514Z,95556.44
2022-12-16T11:23:37.458Z,95544.97
2022-12-16T11:26:37.236Z,95539.84
2022-12-16T11:29:28.070Z,95564.00
2022-12-16T11:32:19.314Z,95562.16
2022-12-16T11:35:12.890Z,95563.81
2022-12-16T11:38:00.206Z,95568.31
2022-12-16T11:40:49.579Z,95577.72
2022-12-16T11:43:38.744Z,95578.75
2022-12-16T11:46:29.783Z,95573.66
2022-12-16T11:49:24.818Z,95583.13
2022-12-16T11:52:36.537Z,95562.16
2022-12-16T11:56:03.283Z,95569.78
2022-12-16T11:58:50.174Z,95584.13
2022-12-16T12:01:45.532Z,95591.09
2022-12-16T12:04:32.885Z,95590.13
2022-12-16T12:07:45.000Z,95585.84
2022-12-16T12:10:56.817Z,95590.63
2022-12-16T12:14:00.833Z,95596.38
2022-12-16T12:16:58.292Z,95591.63
2022-12-16T12:19:54.839Z,95596.50
2022-12-16T12:22:53.242Z,95599.16
2022-12-16T12:25:46.883Z,95594.41
2022-12-16T12:28:45.967Z,95589.50
2022-12-16T12:31:44.643Z,95598.75
2022-12-16T12:34:40.875Z,95570.97
2022-12-16T12:37:35.601Z,95588.69
2022-12-16T12:40:35.043Z,95605.25
2022-12-16T12:43:31.638Z,95604.38
2022-12-16T12:46:34.900Z,95607.03
2022-12-16T12:49:26.853Z,95614.00
2022-12-16T12:52:22.171Z,95616.88
2022-12-16T12:55:13.533Z,95625.28
2022-12-16T12:58:02.695Z,95627.31
2022-12-16T13:00:54.584Z,95621.97
2022-12-16T13:03:52.462Z,95622.41
2022-12-16T13:06:39.538Z,95619.50
2022-12-16T13:09:45.653Z,95617.84
2022-12-16T13:12:43.773Z,95627.72
2022-12-16T13:15:36.875Z,95630.00
2022-12-16T13:18:44.385Z,95629.38
2022-12-16T13:22:02.088Z,95642.50
2022-12-16T13:24:56.609Z,95643.06
2022-12-16T13:27:44.155Z,95644.09
2022-12-16T13:30:40.806Z,95643.78
2022-12-16T13:33:41.653Z,95650.75
2022-12-16T13:36:31.004Z,95649.88
2022-12-16T13:39:25.763Z,95655.41
2022-12-16T13:42:19.747Z,95667.75
2022-12-16T13:45:17.983Z,95674.75
2022-12-16T13:48:24.102Z,95686.84
2022-12-16T13:51:18.465Z,95698.91
2022-12-16T13:54:11.448Z,95702.34
2022-12-16T13:57:03.353Z,95700.41
2022-12-16T13:59:51.847Z,95699.56
2022-12-16T14:02:49.434Z,95709.22
2022-12-16T14:05:38.091Z,95710.47
2022-12-16T14:08:29.306Z,95716.44
2022-12-16T14:11:30.332Z,95727.47
2022-12-16T14:14:20.975Z,95735.09
2022-12-16T14:17:12.398Z,95735.91
2022-12-16T14:20:09.178Z,95736.06
2022-12-16T14:23:17.976Z,95739.28
2022-12-16T14:26:16.933Z,95740.69
2022-12-16T14:29:06.651Z,95746.13
2022-12-16T14:31:55.664Z,95753.25
2022-12-16T14:34:44.638Z,95750.41
2022-12-16T14:37:43.972Z,95760.41
2022-12-16T14:40:39.587Z,95759.78
2022-12-16T14:43:31.520Z,95757.06
2022-12-16T14:46:20.278Z,95769.75
2022-12-16T14:49:08.615Z,95772.81
2022-12-16T14:52:07.913Z,95782.19
2022-12-16T14:54:56.367Z,95768.41
2022-12-16T14:57:44.991Z,95787.94
2022-12-16T15:00:34.861Z,95790.16
2022-12-16T15:03:30.928Z,95791.53
2022-12-16T15:06:18.035Z,95798.16
2022-12-16T15:09:08.451Z,95795.56
2022-12-16T15:12:04.705Z,95806.13
2022-12-16T15:14:53.779Z,95794.47
2022-12-16T15:17:45.550Z,95811.72
2022-12-16T15:20:39.775Z,95818.44
2022-12-16T15:23:34.891Z,95816.03
2022-12-16T15:26:20.963Z,95815.41
2022-12-16T15:29:07.064Z,95823.19
2022-12-16T15:32:02.657Z,95832.84
2022-12-16T15:34:51.600Z,95837.13
2022-12-16T15:37:43.277Z,95830.28
2022-12-16T15:40:42.316Z,95835.94
2022-12-16T15:43:45.848Z,95842.06
2022-12-16T15:46:37.840Z,95841.25
2022-12-16T15:49:33.744Z,95851.16
2022-12-16T15:52:19.623Z,95857.69
2022-12-16T15:55:12.659Z,95854.84
2022-12-16T15:57:58.888Z,95824.28
2022-12-16T16:00:47.341Z,95858.16
2022-12-16T16:03:40.995Z,95869.41
2022-12-16T16:06:35.276Z,95878.44
2022-12-16T16:09:31.148Z,95868.66
2022-12-16T16:12:34.082Z,95884.69
2022-12-16T16:15:20.587Z,95890.00
2022-12-16T16:18:08.454Z,95894.16
2022-12-16T16:20:55.011Z,95896.81
2022-12-16T16:23:40.830Z,95903.16
2022-12-16T16:26:29.793Z,95897.44
2022-12-16T16:29:16.912Z,95914.03
2022-12-16T16:32:05.875Z,95912.97
2022-12-16T16:34:51.944Z,95913.81
2022-12-16T16:37:39.786Z,95912.59
2022-12-16T16:40:37.595Z,95908.09
2022-12-16T16:43:23.563Z,95894.25
2022-12-16T16:46:14.241Z,95914.97
2022-12-16T16:49:00.990Z,95908.75
2022-12-16T16:51:48.577Z,95919.78
2022-12-16T16:54:34.528Z,95925.75
2022-12-16T16:57:21.494Z,95920.31
2022-12-16T17:00:07.687Z,95923.16
2022-12-16T17:02:54.959Z,95931.16
2022-12-16T17:05:41.575Z,95938.13
2022-12-16T17:08:27.526Z,95941.53
2022-12-16T17:11:14.210Z,95953.38
2022-12-16T17:13:59.921Z,95953.75
2022-12-16T17:16:46.155Z,95955.41
2022-12-16T17:19:34.571Z,95962.19
2022-12-16T17:22:35.073Z,95968.16
2022-12-16T17:25:21.155Z,95973.47
2022-12-16T17:28:07.890Z,95977.81
2022-12-16T17:30:55.759Z,95982.47
2022-12-16T17:33:43.859Z,95974.41
2022-12-16T17:36:32.655Z,95981.13
2022-12-16T17:39:19.428Z,95995.88
2022-12-16T17:42:05.898Z,95996.06
2022-12-16T17:44:51.663Z,96004.50
2022-12-16T17:47:38.746Z,95998.75
2022-12-16T17:50:25.662Z,96013.50
2022-12-16T17:53:15.559Z,96017.81
2022-12-16T17:56:02.113Z,96023.81
2022-12-16T17:58:49.732Z,96020.56
2022-12-16T18:01:36.522Z,96014.72
2022-12-16T18:04:22.915Z,96015.53
2022-12-16T18:07:09.356Z,96006.81
2022-12-16T18:09:56.462Z,96028.56
2022-12-16T18:12:43.347Z,96024.63
2022-12-16T18:15:29.766Z,96021.59
2022-12-16T18:18:16.076Z,96028.47
2022-12-16T18:21:01.689Z,96028.66
2022-12-16T18:23:48.465Z,96035.19
2022-12-16T18:26:36.099Z,96041.69
2022-12-16T18:29:22.864Z,96036.00
2022-12-16T18:32:08.851Z,96043.72
2022-12-16T18:34:55.338Z,96044.53
2022-12-16T18:37:42.024Z,96051.34
2022-12-16T18:40:29.297Z,96058.66
2022-12-16T18:43:17.806Z,96057.22
2022-12-16T18:46:10.948Z,96064.75
2022-12-16T18:48:56.766Z,96070.31
2022-12-16T18:51:42.923Z,96063.44
2022-12-16T18:54:28.674Z,96064.81
2022-12-16T18:57:23.380Z,96067.75
2022-12-16T19:00:11.120Z,96084.75
2022-12-16T19:02:57.381Z,96086.66
2022-12-16T19:05:57.989Z,96097.03
2022-12-16T19:08:45.002Z,96097.22
2022-12-16T19:11:30.872Z,96101.22
2022-12-16T19:14:17.135Z,96108.28
2022-12-16T19:17:05.269Z,96106.34
2022-12-16T19:19:51.777Z,96112.03
2022-12-16T19:22:37.644Z,96112.66
2022-12-16T19:25:24.834Z,96111.00
2022-12-16T19:28:10.659Z,96117.34
2022-12-16T19:30:57.421Z,96089.69
2022-12-16T19:33:44.701Z,96129.81
2022-12-16T19:36:36.434Z,96132.47
2022-12-16T19:39:23.089Z,96127.88
2022-12-16T19:42:09.490Z,96138.06
2022-12-16T19:44:56.113Z,96139.97
2022-12-16T19:47:42.869Z,96145.97
2022-12-16T19:50:30.889Z,96149.47
2022-12-16T19:53:18.289Z,96150.47
2022-12-16T19:56:04.452Z,96158.34
2022-12-16T19:58:50.379Z,96150.22
2022-12-16T20:01:37.115Z,96158.50
2022-12-16T20:04:23.504Z,96168.78
2022-12-16T20:07:11.648Z,96171.44
2022-12-16T20:09:57.525Z,96169.25
2022-12-16T20:12:43.873Z,96173.59
2022-12-16T20:15:29.809Z,96169.59
2022-12-16T20:18:16.396Z,96179.31
2022-12-16T20:21:02.232Z,96182.09
2022-12-16T20:23:49.867Z,96189.88
2022-12-16T20:26:36.009Z,96190.38
2022-12-16T20:29:22.620Z,96198.47
2022-12-16T20:32:08.763Z,96206.59
2022-12-16T20:34:56.123Z,96209.63
2022-12-16T20:37:42.351Z,96222.94
2022-12-16T20:40:30.690Z,96227.56
2022-12-16T20:43:16.414Z,96232.19
2022-12-16T20:46:02.914Z,96235.47
2022-12-16T20:48:49.095Z,96237.63
2022-12-16T20:51:35.590Z,96243.41
2022-12-16T20:54:21.450Z,96247.44
2022-12-16T20:57:12.728Z,96244.22
2022-12-16T20:59:59.654Z,96248.91
2022-12-16T21:02:46.344Z,96261.59
2022-12-16T21:05:32.187Z,96265.53
2022-12-16T21:08:18.542Z,96268.75
2022-12-16T21:11:24.332Z,96273.69
2022-12-16T21:14:18.884Z,96279.53
2022-12-16T21:17:25.322Z,96273.94
2022-12-16T21:20:34.605Z,96288.28
2022-12-16T21:23:25.236Z,96297.09
2022-12-16T21:26:11.537Z,96300.06
2022-12-16T21:28:57.587Z,96302.75
2022-12-16T21:31:45.645Z,96309.91
2022-12-16T21:34:32.403Z,96315.41
2022-12-16T21:37:18.763Z,96317.88
2022-12-16T21:40:04.966Z,96321.03
2022-12-16T21:42:51.604Z,96325.19
2022-12-16T21:45:37.593Z,96326.66
2022-12-16T21:48:25.425Z,96324.81
2022-12-16T21:51:11.802Z,96331.13
2022-12-16T21:54:00.090Z,96337.16
2022-12-16T21:56:48.763Z,96340.31
2022-12-16T21:59:34.920Z,96340.50
2022-12-16T22:02:22.944Z,96343.63
2022-12-16T22:05:10.586Z,96353.63
2022-12-16T22:07:56.842Z,96343.03
2022-12-16T22:10:43.061Z,96360.78
2022-12-16T22:13:28.993Z,96365.75
2022-12-16T22:16:15.840Z,96358.59
2022-12-16T22:19:02.031Z,96360.44
2022-12-16T22:21:49.539Z,96378.91
2022-12-16T22:24:35.668Z,96371.25
2022-12-16T22:27:22.465Z,96379.44
2022-12-16T22:30:08.497Z,96382.91
2022-12-16T22:32:56.595Z,96379.94
2022-12-16T22:35:42.472Z,96380.81
2022-12-16T22:38:29.859Z,96387.66
2022-12-16T22:41:16.849Z,96387.31
2022-12-16T22:44:03.558Z,96399.16
2022-12-16T22:46:50.358Z,96396.66
2022-12-16T22:49:36.746Z,96397.66
2022-12-16T22:52:23.608Z,96398.31
2022-12-16T22:55:10.936Z,96391.53
2022-12-16T22:57:56.840Z,96406.00
2022-12-16T23:00:43.020Z,96406.47
2022-12-16T23:03:34.035Z,96405.81
2022-12-16T23:06:20.580Z,96410.50
2022-12-16T23:09:09.781Z,96420.97
2022-12-16T23:11:59.063Z,96403.50
2022-12-16T23:14:45.382Z,96430.28
2022-12-16T23:17:32.099Z,96430.13
2022-12-16T23:20:18.058Z,96422.97
2022-12-16T23:23:04.663Z,96431.78
2022-12-16T23:25:50.653Z,96432.59
2022-12-16T23:28:38.902Z,96432.59
2022-12-16T23:31:24.930Z,96439.91
2022-12-16T23:34:12.328Z,96443.56
2022-12-16T23:36:58.237Z,96436.28
2022-12-16T23:39:44.605Z,96451.28
2022-12-16T23:42:30.639Z,96453.56
2022-12-16T23:45:18.365Z,96454.06
2022-12-16T23:48:04.399Z,96460.22
2022-12-16T23:50:51.087Z,96460.22
2022-12-16T23:53:37.601Z,96456.59
2022-12-16T23:56:24.594Z,96462.22
2022-12-16T23:59:10.681Z,96465.25
